createdAt,value
2018-01-31T01:53:48.189Z,11.40
2018-01-31T01:56:15.663Z,11.40
2018-01-31T01:58:43.109Z,11.40
2018-01-31T02:01:10.569Z,11.40
2018-01-31T02:03:38.022Z,11.40
2018-01-31T02:06:05.497Z,11.40
2018-01-31T02:08:32.968Z,11.40
2018-01-31T02:11:00.421Z,11.50
2018-01-31T02:13:27.890Z,11.50
2018-01-31T02:15:55.348Z,11.50
2018-01-31T02:18:22.804Z,11.40
2018-01-31T02:20:50.262Z,11.50
2018-01-31T02:23:17.720Z,11.50
2018-01-31T02:25:45.172Z,11.50
2018-01-31T02:28:12.634Z,11.50
2018-01-31T02:30:40.648Z,11.60
2018-01-31T02:33:08.123Z,11.50
2018-01-31T02:35:35.569Z,11.50
2018-01-31T02:38:03.030Z,11.50
2018-01-31T02:40:30.485Z,11.50
2018-01-31T02:42:57.944Z,11.60
2018-01-31T02:45:25.402Z,11.50
2018-01-31T02:47:52.865Z,11.60
2018-01-31T02:50:20.321Z,11.60
2018-01-31T02:52:47.785Z,11.60
2018-01-31T02:55:15.229Z,11.60
2018-01-31T02:57:42.692Z,11.60
2018-01-31T03:00:10.149Z,11.70
2018-01-31T03:02:37.637Z,11.60
2018-01-31T03:05:05.064Z,11.60
2018-01-31T03:07:32.533Z,11.60
2018-01-31T03:09:59.989Z,11.70
2018-01-31T03:12:27.436Z,11.60
2018-01-31T03:14:54.902Z,11.60
2018-01-31T03:17:22.353Z,11.60
2018-01-31T03:19:49.826Z,11.60
2018-01-31T03:22:17.293Z,11.60
2018-01-31T03:24:44.748Z,11.60
2018-01-31T03:27:12.211Z,11.60
2018-01-31T03:29:39.669Z,11.60
2018-01-31T03:32:07.125Z,11.60
2018-01-31T03:34:34.602Z,11.60
2018-01-31T03:37:02.053Z,11.70
2018-01-31T03:39:29.521Z,11.60
2018-01-31T03:41:57.742Z,11.60
2018-01-31T03:44:25.198Z,11.60
2018-01-31T03:46:52.649Z,11.60
2018-01-31T03:49:20.137Z,11.60
2018-01-31T03:51:47.600Z,11.60
2018-01-31T03:54:15.078Z,11.60
2018-01-31T03:56:43.298Z,11.60
2018-01-31T03:59:10.769Z,11.60
2018-01-31T04:01:38.216Z,11.70
2018-01-31T04:04:05.688Z,11.70
2018-01-31T04:06:33.139Z,11.70
2018-01-31T04:09:00.585Z,11.80
2018-01-31T04:11:28.057Z,11.70
2018-01-31T04:13:55.513Z,11.70
2018-01-31T04:16:22.973Z,11.70
2018-01-31T04:18:50.425Z,11.70
2018-01-31T04:21:17.890Z,11.70
2018-01-31T04:23:45.349Z,11.70
2018-01-31T04:26:12.809Z,11.70
2018-01-31T04:28:40.265Z,11.70
2018-01-31T04:31:07.722Z,11.70
2018-01-31T04:33:35.177Z,11.70
2018-01-31T04:36:02.653Z,11.70
2018-01-31T04:38:30.097Z,11.70
2018-01-31T04:40:57.553Z,11.70
2018-01-31T04:43:24.997Z,11.70
2018-01-31T04:45:52.456Z,11.70
2018-01-31T04:48:19.909Z,11.70
2018-01-31T04:50:47.374Z,11.70
2018-01-31T04:53:14.826Z,11.70
2018-01-31T04:55:42.284Z,11.70
2018-01-31T04:58:09.752Z,11.70
2018-01-31T05:00:37.213Z,11.70
2018-01-31T05:03:04.672Z,11.70
2018-01-31T05:05:32.120Z,11.80
2018-01-31T05:07:59.577Z,11.70
2018-01-31T05:10:27.060Z,11.70
2018-01-31T05:12:54.518Z,11.70
2018-01-31T05:15:21.978Z,11.70
2018-01-31T05:17:49.433Z,11.70
2018-01-31T05:20:16.881Z,11.70
2018-01-31T05:22:44.342Z,11.70
2018-01-31T05:25:11.797Z,11.70
2018-01-31T05:27:39.249Z,11.70
2018-01-31T05:30:06.701Z,11.60
2018-01-31T05:32:34.160Z,11.70
2018-01-31T05:35:01.609Z,11.70
2018-01-31T05:37:29.100Z,11.70
2018-01-31T05:39:56.558Z,11.70
2018-01-31T05:42:24.021Z,11.70
2018-01-31T05:44:52.234Z,11.70
2018-01-31T05:47:19.693Z,11.70
2018-01-31T05:49:47.152Z,11.70
2018-01-31T05:52:14.609Z,11.70
2018-01-31T05:54:42.069Z,11.70
2018-01-31T05:57:09.529Z,11.70
2018-01-31T05:59:36.980Z,11.70
2018-01-31T06:02:04.445Z,11.70
2018-01-31T06:04:31.896Z,11.80
2018-01-31T06:06:59.353Z,11.80
2018-01-31T06:09:27.564Z,11.80
2018-01-31T06:11:55.022Z,11.80
2018-01-31T06:14:23.246Z,11.80
2018-01-31T06:16:50.706Z,11.80
2018-01-31T06:19:18.161Z,11.80
2018-01-31T06:21:45.621Z,11.90
2018-01-31T06:24:13.096Z,11.90
2018-01-31T06:26:40.540Z,11.90
2018-01-31T06:29:07.997Z,12.00
2018-01-31T06:31:35.449Z,11.90
2018-01-31T06:34:02.907Z,11.90
2018-01-31T06:36:30.370Z,12.00
2018-01-31T06:38:57.836Z,12.00
2018-01-31T06:41:25.292Z,12.00
2018-01-31T06:43:52.741Z,12.10
2018-01-31T06:46:20.190Z,12.10
2018-01-31T06:48:47.650Z,12.10
2018-01-31T06:51:15.092Z,12.10
2018-01-31T06:53:43.305Z,12.20
2018-01-31T06:56:10.777Z,12.10
2018-01-31T06:58:38.233Z,12.20
2018-01-31T07:01:05.691Z,12.20
2018-01-31T07:03:33.145Z,12.20
2018-01-31T07:06:00.604Z,12.20
2018-01-31T07:08:28.062Z,12.20
2018-01-31T07:10:55.512Z,12.20
2018-01-31T07:13:22.957Z,12.30
2018-01-31T07:15:50.426Z,12.30
2018-01-31T07:18:17.874Z,12.30
2018-01-31T07:20:45.334Z,12.40
2018-01-31T07:23:12.784Z,12.40
2018-01-31T07:25:40.237Z,12.40
2018-01-31T07:28:07.677Z,12.40
2018-01-31T07:30:35.133Z,12.40
2018-01-31T07:33:02.589Z,12.50
2018-01-31T07:35:30.045Z,12.50
2018-01-31T07:37:57.501Z,12.50
2018-01-31T07:40:24.963Z,12.50
2018-01-31T07:42:52.416Z,12.50
2018-01-31T07:45:19.868Z,12.60
2018-01-31T07:47:48.078Z,12.60
2018-01-31T07:50:15.529Z,12.60
2018-01-31T07:52:43.045Z,12.60
2018-01-31T07:55:11.295Z,12.70
2018-01-31T07:57:38.736Z,12.70
2018-01-31T08:00:06.387Z,12.80
2018-01-31T08:02:33.823Z,12.80
2018-01-31T08:05:01.272Z,12.80
2018-01-31T08:07:28.721Z,12.80
2018-01-31T08:09:56.174Z,12.80
2018-01-31T08:12:24.391Z,12.90
2018-01-31T08:14:52.122Z,12.80
2018-01-31T08:17:20.332Z,12.90
2018-01-31T08:19:47.783Z,12.90
2018-01-31T08:22:15.241Z,12.90
2018-01-31T08:24:42.687Z,12.90
2018-01-31T08:27:10.173Z,12.90
2018-01-31T08:29:37.633Z,12.90
2018-01-31T08:32:05.857Z,13.00
2018-01-31T08:34:33.300Z,13.00
2018-01-31T08:37:01.533Z,13.10
2018-01-31T08:39:28.989Z,13.10
2018-01-31T08:41:56.461Z,13.10
2018-01-31T08:44:23.912Z,13.20
2018-01-31T08:46:51.366Z,13.20
2018-01-31T08:49:18.826Z,13.20
2018-01-31T08:51:46.298Z,13.20
2018-01-31T08:54:13.737Z,13.20
2018-01-31T08:56:41.201Z,13.30
2018-01-31T08:59:08.645Z,13.30
2018-01-31T09:01:36.114Z,13.40
2018-01-31T09:04:03.571Z,13.50
2018-01-31T09:06:31.026Z,13.50
2018-01-31T09:08:58.485Z,13.70
2018-01-31T09:11:25.956Z,13.70
2018-01-31T09:13:53.592Z,13.70
2018-01-31T09:16:21.074Z,13.70
2018-01-31T09:18:48.684Z,13.70
2018-01-31T09:21:16.132Z,13.60
2018-01-31T09:23:44.353Z,13.60
2018-01-31T09:26:11.808Z,13.60
2018-01-31T09:28:39.314Z,13.60
2018-01-31T09:31:07.525Z,13.60
2018-01-31T09:33:34.982Z,13.60
2018-01-31T09:36:02.454Z,13.60
2018-01-31T09:38:29.975Z,13.60
2018-01-31T09:40:57.416Z,13.60
2018-01-31T09:43:25.670Z,13.70
2018-01-31T09:45:53.125Z,13.70
2018-01-31T09:48:20.581Z,13.70
2018-01-31T09:50:48.044Z,13.70
2018-01-31T09:53:18.497Z,13.70
2018-01-31T09:55:42.953Z,13.70
2018-01-31T09:58:10.460Z,13.70
2018-01-31T10:00:37.913Z,13.80
2018-01-31T10:03:05.365Z,13.80
2018-01-31T10:05:32.811Z,13.80
2018-01-31T10:08:01.043Z,13.90
2018-01-31T10:10:28.498Z,13.80
2018-01-31T10:12:55.940Z,13.90
2018-01-31T10:15:24.163Z,13.90
2018-01-31T10:17:51.596Z,13.90
2018-01-31T10:20:19.053Z,14.00
2018-01-31T10:22:46.505Z,14.00
2018-01-31T10:25:13.952Z,14.00
2018-01-31T10:27:41.404Z,14.00
2018-01-31T10:30:08.864Z,14.00
2018-01-31T10:32:37.078Z,14.10
2018-01-31T10:35:04.579Z,14.10
2018-01-31T10:37:32.012Z,14.10
2018-01-31T10:40:00.228Z,14.10
2018-01-31T10:42:27.677Z,14.10
2018-01-31T10:44:55.133Z,14.10
2018-01-31T10:47:22.585Z,14.10
2018-01-31T10:49:50.046Z,14.10
2018-01-31T10:52:17.493Z,14.10
2018-01-31T10:57:28.864Z,14.20
2018-01-31T10:59:39.890Z,14.30
2018-01-31T11:02:07.358Z,14.30
2018-01-31T11:04:34.785Z,14.30
2018-01-31T11:07:02.244Z,14.30
2018-01-31T11:09:29.689Z,14.30
2018-01-31T11:11:57.145Z,14.30
2018-01-31T11:14:24.598Z,14.40
2018-01-31T11:16:52.045Z,14.40
2018-01-31T11:19:20.256Z,14.40
2018-01-31T11:21:47.708Z,14.40
2018-01-31T11:24:15.163Z,14.40
2018-01-31T11:26:42.617Z,14.40
2018-01-31T11:29:10.061Z,14.40
2018-01-31T11:31:37.513Z,14.40
2018-01-31T11:34:04.953Z,14.50
2018-01-31T11:36:33.181Z,14.50
2018-01-31T11:39:00.625Z,14.50
2018-01-31T11:41:28.084Z,14.50
2018-01-31T11:43:55.526Z,14.50
2018-01-31T11:46:22.977Z,14.50
2018-01-31T11:48:50.427Z,14.60
2018-01-31T11:51:17.899Z,14.60
2018-01-31T11:53:46.098Z,14.50
2018-01-31T11:56:13.544Z,14.50
2018-01-31T11:58:40.997Z,14.50
2018-01-31T12:01:08.453Z,14.50
2018-01-31T12:03:35.923Z,14.50
2018-01-31T12:06:03.377Z,14.50
2018-01-31T12:08:30.830Z,14.50
2018-01-31T12:10:58.272Z,14.50
2018-01-31T12:13:37.346Z,14.50
2018-01-31T12:16:16.662Z,14.50
2018-01-31T12:18:55.951Z,14.50
2018-01-31T12:24:34.349Z,14.50
2018-01-31T12:27:13.597Z,14.50
2018-01-31T12:29:54.641Z,14.50
2018-01-31T12:32:33.937Z,14.50
2018-01-31T12:35:13.113Z,14.50
2018-01-31T12:37:52.361Z,14.50
2018-01-31T12:40:19.332Z,14.50
2018-01-31T12:42:46.298Z,14.50
2018-01-31T12:45:13.292Z,14.40
2018-01-31T12:51:01.424Z,14.40
2018-01-31T12:53:38.698Z,14.40
2018-01-31T12:56:30.793Z,14.40
2018-01-31T12:59:09.909Z,14.40
2018-01-31T13:05:06.397Z,14.30
2018-01-31T13:07:45.626Z,14.40
2018-01-31T13:10:24.834Z,14.30
2018-01-31T13:13:04.033Z,14.30
2018-01-31T13:15:43.334Z,14.30
2018-01-31T13:18:23.388Z,14.30
2018-01-31T13:21:02.684Z,14.30
2018-01-31T13:23:30.152Z,14.30
2018-01-31T13:26:05.305Z,14.30
2018-01-31T13:28:43.672Z,14.30
2018-01-31T13:31:22.822Z,14.30
2018-01-31T13:34:02.022Z,14.20
2018-01-31T13:36:41.309Z,14.30
2018-01-31T13:39:20.431Z,14.20
2018-01-31T13:41:59.742Z,14.20
2018-01-31T13:44:39.794Z,14.20
2018-01-31T13:47:19.705Z,14.20
2018-01-31T13:53:01.282Z,14.20
2018-01-31T13:55:40.611Z,14.20
2018-01-31T13:58:19.841Z,14.30
2018-01-31T14:00:59.154Z,14.30
2018-01-31T14:03:39.201Z,14.20
2018-01-31T14:06:19.203Z,14.20
2018-01-31T14:08:58.266Z,14.10
2018-01-31T14:11:37.589Z,14.10
2018-01-31T14:14:16.710Z,14.10
2018-01-31T14:16:56.741Z,14.20
2018-01-31T14:19:35.962Z,14.20
2018-01-31T14:22:15.142Z,14.30
2018-01-31T14:24:54.402Z,14.30
2018-01-31T14:27:33.591Z,14.20
2018-01-31T14:30:12.887Z,14.20
2018-01-31T14:32:52.193Z,14.20
2018-01-31T14:35:31.464Z,14.30
2018-01-31T14:37:58.430Z,14.20
2018-01-31T14:40:26.071Z,14.20
2018-01-31T14:42:53.082Z,14.20
2018-01-31T14:45:20.135Z,14.10
2018-01-31T14:47:47.150Z,14.10
2018-01-31T14:50:14.914Z,14.00
2018-01-31T14:52:41.973Z,14.00
2018-01-31T14:55:09.012Z,14.10
2018-01-31T14:57:36.810Z,14.00
2018-01-31T15:00:07.299Z,14.00
2018-01-31T15:02:34.350Z,14.00
2018-01-31T15:05:01.369Z,14.00
2018-01-31T15:07:28.416Z,14.00
2018-01-31T15:09:55.415Z,14.00
2018-01-31T15:12:22.440Z,14.00
2018-01-31T15:14:49.437Z,14.00
2018-01-31T15:17:16.438Z,14.00
2018-01-31T15:19:44.906Z,13.90
2018-01-31T15:22:11.912Z,13.90
2018-01-31T15:24:38.915Z,13.90
2018-01-31T15:27:05.910Z,13.90
2018-01-31T15:29:33.670Z,13.80
2018-01-31T15:32:01.412Z,13.80
2018-01-31T15:34:28.394Z,13.80
2018-01-31T15:36:55.398Z,13.80
2018-01-31T15:39:22.404Z,13.80
2018-01-31T15:41:49.459Z,13.80
2018-01-31T15:44:16.453Z,13.80
2018-01-31T15:46:44.252Z,13.80
2018-01-31T15:49:11.256Z,13.80
2018-01-31T15:51:38.240Z,13.70
2018-01-31T15:54:05.231Z,13.70
2018-01-31T15:56:32.228Z,13.70
2018-01-31T15:58:59.259Z,13.70
2018-01-31T16:01:26.238Z,13.70
2018-01-31T16:03:53.229Z,13.60
2018-01-31T16:06:20.233Z,13.60
2018-01-31T16:08:47.253Z,13.60
2018-01-31T16:11:14.235Z,13.60
2018-01-31T16:13:41.238Z,13.60
2018-01-31T16:16:08.216Z,13.60
2018-01-31T16:18:47.410Z,13.60
2018-01-31T16:21:25.517Z,13.50
2018-01-31T16:23:53.043Z,13.50
2018-01-31T16:26:20.533Z,13.50
2018-01-31T16:28:59.849Z,13.40
2018-01-31T16:31:39.698Z,13.40
2018-01-31T16:34:07.217Z,13.40
2018-01-31T16:36:34.674Z,13.40
2018-01-31T16:39:02.154Z,13.40
2018-01-31T16:41:29.633Z,13.40
2018-01-31T16:43:57.114Z,13.30
2018-01-31T16:46:24.575Z,13.30
2018-01-31T16:48:52.823Z,13.30
2018-01-31T16:51:20.310Z,13.30
2018-01-31T16:53:47.785Z,13.30
2018-01-31T16:56:15.266Z,13.30
2018-01-31T16:58:43.501Z,13.30
2018-01-31T17:01:10.987Z,13.30
2018-01-31T17:03:38.474Z,13.30
2018-01-31T17:06:06.729Z,13.30
2018-01-31T17:08:34.238Z,13.30
2018-01-31T17:11:01.742Z,13.20
2018-01-31T17:13:29.210Z,13.20
2018-01-31T17:15:57.482Z,13.20
2018-01-31T17:18:25.751Z,13.20
2018-01-31T17:20:53.233Z,13.20
2018-01-31T17:23:20.736Z,13.20
2018-01-31T17:25:58.974Z,13.20
2018-01-31T17:28:26.468Z,13.20
2018-01-31T17:30:53.957Z,13.20
2018-01-31T17:33:21.489Z,13.10
2018-01-31T17:35:48.982Z,13.10
2018-01-31T17:38:16.466Z,13.20
2018-01-31T17:40:43.960Z,13.10
2018-01-31T17:43:11.459Z,13.10
2018-01-31T17:45:39.689Z,13.10
2018-01-31T17:48:07.965Z,13.10
2018-01-31T17:50:35.477Z,13.10
2018-01-31T17:53:04.038Z,13.10
2018-01-31T17:55:31.509Z,13.10
2018-01-31T17:57:58.989Z,13.00
2018-01-31T18:00:26.465Z,13.10
2018-01-31T18:02:53.965Z,13.00
2018-01-31T18:05:22.241Z,13.00
2018-01-31T18:07:50.578Z,13.00
2018-01-31T18:10:18.135Z,13.00
2018-01-31T18:12:45.706Z,13.00
2018-01-31T18:15:13.266Z,13.00
2018-01-31T18:17:40.860Z,12.90
2018-01-31T18:20:08.438Z,13.00
2018-01-31T18:22:36.045Z,12.90
2018-01-31T18:25:03.643Z,12.90
2018-01-31T18:27:31.173Z,12.90
2018-01-31T18:29:58.659Z,12.90
2018-01-31T18:32:26.199Z,12.90
2018-01-31T18:34:53.700Z,12.90
2018-01-31T18:37:21.236Z,13.00
2018-01-31T18:39:48.731Z,12.90
2018-01-31T18:42:16.285Z,12.90
2018-01-31T18:44:43.802Z,12.90
2018-01-31T18:47:12.105Z,12.80
2018-01-31T18:49:40.369Z,12.90
2018-01-31T18:52:07.861Z,12.80
2018-01-31T18:54:36.276Z,12.80
2018-01-31T18:57:03.794Z,12.80
2018-01-31T18:59:31.307Z,12.70
2018-01-31T19:01:59.583Z,12.70
2018-01-31T19:04:27.839Z,12.70
2018-01-31T19:06:55.318Z,12.70
2018-01-31T19:09:22.799Z,12.70
2018-01-31T19:11:50.290Z,12.60
2018-01-31T19:14:17.784Z,12.70
2018-01-31T19:16:45.275Z,12.70
2018-01-31T19:19:12.759Z,12.60
2018-01-31T19:21:40.231Z,12.60
2018-01-31T19:24:07.730Z,12.60
2018-01-31T19:26:36.020Z,12.60
2018-01-31T19:29:04.289Z,12.60
2018-01-31T19:31:31.774Z,12.60
2018-01-31T19:33:59.242Z,12.60
2018-01-31T19:36:27.569Z,12.50
2018-01-31T19:38:55.107Z,12.50
2018-01-31T19:41:23.351Z,12.60
2018-01-31T19:43:50.844Z,12.60
2018-01-31T19:46:18.344Z,12.60
2018-01-31T19:48:45.834Z,12.60
2018-01-31T19:51:13.362Z,12.60
2018-01-31T19:53:40.835Z,12.60
2018-01-31T19:56:08.322Z,12.60
2018-01-31T19:58:36.578Z,12.50
2018-01-31T20:01:04.099Z,12.50
2018-01-31T20:03:31.612Z,12.50
2018-01-31T20:05:59.150Z,12.50
2018-01-31T20:08:26.633Z,12.50
2018-01-31T20:10:54.165Z,12.50
2018-01-31T20:13:22.411Z,12.50
2018-01-31T20:15:49.905Z,12.50
2018-01-31T20:18:17.404Z,12.50
2018-01-31T20:20:45.700Z,12.50
2018-01-31T20:23:13.193Z,12.40
2018-01-31T20:25:40.696Z,12.50
2018-01-31T20:28:09.024Z,12.40
2018-01-31T20:30:37.281Z,12.40
2018-01-31T20:33:04.782Z,12.50
2018-01-31T20:35:32.342Z,12.50
2018-01-31T20:38:00.589Z,12.50
2018-01-31T20:40:28.098Z,12.50
2018-01-31T20:42:56.347Z,12.50
2018-01-31T20:45:23.873Z,12.50
2018-01-31T20:47:51.362Z,12.40
2018-01-31T20:50:18.836Z,12.40
2018-01-31T20:52:46.319Z,12.40
2018-01-31T20:55:13.856Z,12.30
2018-01-31T20:57:42.087Z,12.30
2018-01-31T21:00:09.583Z,12.30
2018-01-31T21:02:37.079Z,12.30
2018-01-31T21:05:04.563Z,12.30
2018-01-31T21:07:32.064Z,12.40
2018-01-31T21:09:59.582Z,12.30
2018-01-31T21:12:27.834Z,12.30
2018-01-31T21:14:55.398Z,12.30
2018-01-31T21:17:22.884Z,12.30
2018-01-31T21:19:50.377Z,12.30
2018-01-31T21:22:17.849Z,12.30
2018-01-31T21:24:45.342Z,12.30
2018-01-31T21:27:12.942Z,12.30
2018-01-31T21:29:40.475Z,12.30
2018-01-31T21:32:08.712Z,12.20
2018-01-31T21:34:36.220Z,12.10
2018-01-31T21:37:03.686Z,12.20
2018-01-31T21:39:31.175Z,12.20
2018-01-31T21:41:59.430Z,12.10
2018-01-31T21:44:26.954Z,12.10
2018-01-31T21:46:54.426Z,12.10
2018-01-31T21:49:21.910Z,12.00
2018-01-31T21:51:49.409Z,12.00
2018-01-31T21:54:16.962Z,12.00
2018-01-31T21:56:44.450Z,12.00
2018-01-31T21:59:11.939Z,11.90
2018-01-31T22:01:39.430Z,11.90
2018-01-31T22:04:07.674Z,11.90
2018-01-31T22:06:35.166Z,11.90
2018-01-31T22:09:02.670Z,11.80
2018-01-31T22:11:30.168Z,11.80
2018-01-31T22:13:57.671Z,11.80
2018-01-31T22:16:25.192Z,11.80
2018-01-31T22:18:52.655Z,11.80
2018-01-31T22:21:20.163Z,11.80
2018-01-31T22:23:48.630Z,11.70
2018-01-31T22:26:16.147Z,11.70
2018-01-31T22:28:43.641Z,11.80
2018-01-31T22:31:11.203Z,11.70
2018-01-31T22:33:39.465Z,11.70
2018-01-31T22:36:06.982Z,11.70
2018-01-31T22:38:34.464Z,11.60
2018-01-31T22:41:01.966Z,11.60
2018-01-31T22:43:29.467Z,11.60
2018-01-31T22:45:56.962Z,11.60
2018-01-31T22:48:25.230Z,11.50
2018-01-31T22:50:52.702Z,11.50
2018-01-31T22:53:20.963Z,11.50
2018-01-31T22:55:48.439Z,11.50
2018-01-31T22:58:15.934Z,11.50
2018-01-31T23:00:44.198Z,11.40
2018-01-31T23:03:11.683Z,11.40
2018-01-31T23:05:39.197Z,11.40
2018-01-31T23:08:06.692Z,11.40
2018-01-31T23:10:34.182Z,11.40
2018-01-31T23:13:07.243Z,11.40
2018-01-31T23:15:35.641Z,11.40
2018-01-31T23:18:08.611Z,11.40
2018-01-31T23:20:36.153Z,11.30
2018-01-31T23:23:03.651Z,11.30
2018-01-31T23:25:31.890Z,11.30
2018-01-31T23:27:59.384Z,11.20
2018-01-31T23:30:26.871Z,11.30
2018-01-31T23:32:55.146Z,11.20
2018-01-31T23:35:22.640Z,11.20
2018-01-31T23:37:50.103Z,11.30
2018-01-31T23:40:17.601Z,11.20
2018-01-31T23:42:45.095Z,11.20
2018-01-31T23:45:12.564Z,11.20
2018-01-31T23:47:40.062Z,11.20
2018-01-31T23:50:07.594Z,11.20
2018-01-31T23:52:35.074Z,11.20
2018-01-31T23:55:02.579Z,11.10
2018-01-31T23:57:30.050Z,11.10
2018-01-31T23:59:57.526Z,11.10
